Time;durP1;ratioP1;P1;durP2;ratioP2;P2;SDS_P1;SDS_P2;PMS_P1;PMS_P2;Temp;Humidity;BMP_temperature;BMP_pressure;BME280_temperature;BME280_humidity;BME280_pressure;Samples;Min_cycle;Max_cycle;Signal;HPM_P1;HPM_P2
2022/05/16 00:02:14;;;;;;;12.40;6.38;;;19.90;99.90;;;20.24;49.10;101221.53;4861110;29;20056;-60
2022/05/16 00:04:46;;;;;;;10.75;5.65;;;19.90;99.90;;;20.27;49.20;101242.00;4860984;29;20065;-60
2022/05/16 00:07:17;;;;;;;16.38;6.43;;;19.90;99.90;;;20.15;49.59;101208.41;4860525;29;20049;-61
2022/05/16 00:09:46;;;;;;;14.00;6.18;;;19.90;99.90;;;19.99;50.52;101215.31;4859380;29;20133;-61
2022/05/16 00:12:17;;;;;;;14.90;6.32;;;19.70;99.90;;;19.40;50.31;101103.88;4859360;29;20399;-60
2022/05/16 00:14:47;;;;;;;16.80;6.90;;;19.70;99.90;;;19.73;50.32;101148.25;4860670;29;20129;-60
2022/05/16 00:17:16;;;;;;;14.52;6.72;;;19.80;99.90;;;20.13;50.43;101195.97;4860604;29;20152;-61
2022/05/16 00:19:44;;;;;;;15.90;6.60;;;19.80;99.90;;;20.16;50.32;101174.34;4859502;29;20069;-60
2022/05/16 00:22:13;;;;;;;18.88;6.65;;;19.90;99.90;;;19.84;51.13;101194.38;4860352;29;20136;-60
2022/05/16 00:24:44;;;;;;;17.30;6.82;;;19.60;99.90;;;20.06;51.00;101183.69;4859243;29;20514;-60
2022/05/16 00:27:13;;;;;;;16.85;6.63;;;19.70;99.90;;;19.99;51.25;101179.50;4860298;29;20049;-60
2022/05/16 00:29:42;;;;;;;17.02;6.70;;;19.70;99.90;;;19.97;51.43;101176.00;4860365;29;20060;-60
2022/05/16 00:32:10;;;;;;;13.60;6.53;;;19.70;99.90;;;19.96;51.57;101179.59;4860338;29;20117;-60
2022/05/16 00:34:39;;;;;;;14.85;7.03;;;19.70;99.90;;;19.89;52.02;101170.03;4859839;29;20060;-60
2022/05/16 00:37:07;;;;;;;18.88;7.53;;;19.50;99.90;;;19.67;52.66;101180.69;4860316;29;20050;-60
2022/05/16 00:39:36;;;;;;;12.88;6.95;;;19.40;99.90;;;19.50;52.93;101169.69;4859950;29;20448;-60
2022/05/16 00:42:06;;;;;;;18.17;7.00;;;19.20;99.90;;;19.58;53.15;101167.63;4859101;29;20117;-60
2022/05/16 00:44:38;;;;;;;15.77;7.53;;;19.20;99.90;;;19.56;53.25;101161.44;4860120;29;20109;-61
2022/05/16 00:47:07;;;;;;;15.00;6.95;;;19.30;99.90;;;19.52;53.42;101163.34;4860031;29;20049;-61
2022/05/16 00:49:38;;;;;;;17.17;6.88;;;19.20;99.90;;;19.42;53.58;101153.88;4859994;29;20172;-60
2022/05/16 00:52:14;;;;;;;16.65;7.15;;;19.10;99.90;;;19.58;53.44;101143.47;4859832;29;20114;-60
2022/05/16 00:54:50;;;;;;;16.10;7.20;;;19.30;99.90;;;19.52;53.78;101157.09;4859806;29;20049;-60
2022/05/16 00:57:24;;;;;;;14.98;6.82;;;19.30;99.90;;;19.52;53.79;101160.69;4860026;29;20053;-61
2022/05/16 01:00:06;;;;;;;13.38;6.78;;;19.20;99.90;;;19.28;54.59;101150.78;4859648;29;20053;-60
2022/05/16 01:05:23;;;;;;;18.40;7.30;;;19.00;99.90;;;19.20;55.24;101141.28;4859684;29;20121;-60
2022/05/16 01:07:51;;;;;;;12.85;7.00;;;18.90;99.90;;;19.12;55.56;101143.34;4859930;29;20072;-60
2022/05/16 01:10:22;;;;;;;20.13;7.03;;;18.80;99.90;;;19.11;55.64;101147.81;4859641;29;20060;-60
2022/05/16 01:12:57;;;;;;;14.50;7.25;;;18.80;99.90;;;19.03;55.79;101139.16;4859929;29;20069;-61
2022/05/16 01:15:33;;;;;;;17.65;7.18;;;18.70;99.90;;;19.02;55.69;101136.53;4859579;29;20077;-61
2022/05/16 01:18:01;;;;;;;14.93;7.28;;;18.80;99.90;;;19.02;56.14;101144.59;4859770;29;20057;-60
2022/05/16 01:21:08;;;;;;;18.55;7.03;;;18.70;99.90;;;18.92;56.38;101147.59;4859422;29;20042;-60
2022/05/16 01:23:43;;;;;;;17.23;7.18;;;18.70;99.90;;;18.95;56.55;101145.72;4859826;29;20129;-60
2022/05/16 01:26:18;;;;;;;19.90;7.43;;;18.70;99.90;;;18.86;56.82;101150.47;4859572;29;20064;-60
2022/05/16 01:28:48;;;;;;;20.20;7.53;;;18.50;99.90;;;18.84;56.95;101135.38;4859773;29;20090;-60
2022/05/16 01:31:16;;;;;;;16.38;7.28;;;18.50;99.90;;;18.89;56.79;101136.09;4859588;29;20058;-60
2022/05/16 01:33:44;;;;;;;18.00;7.38;;;18.60;99.90;;;18.74;57.80;101137.47;4859348;29;20050;-60
2022/05/16 01:36:13;;;;;;;14.45;6.97;;;18.50;99.90;;;18.71;57.85;101142.06;4859249;29;20077;-60
2022/05/16 01:38:43;;;;;;;17.85;6.80;;;18.40;99.90;;;18.65;57.94;101132.44;4859402;29;20042;-60
2022/05/16 01:41:15;;;;;;;18.97;7.30;;;18.30;99.90;;;18.53;57.86;101130.16;4859344;29;20129;-60
2022/05/16 01:43:47;;;;;;;18.20;6.70;;;18.30;99.90;;;18.53;58.12;101134.63;4859845;29;20052;-60
2022/05/16 01:46:20;;;;;;;17.65;7.30;;;18.20;99.90;;;18.47;58.50;101119.63;4859627;29;20049;-60
2022/05/16 01:48:48;;;;;;;13.63;7.07;;;18.20;99.90;;;18.52;58.43;101123.06;4859615;29;20102;-60
2022/05/16 01:51:17;;;;;;;16.95;7.35;;;18.20;99.90;;;18.45;58.62;101120.59;4859528;29;20053;-60
2022/05/16 01:53:46;;;;;;;15.32;7.45;;;18.10;99.90;;;18.26;59.09;101120.28;4858154;29;20536;-60
2022/05/16 01:56:16;;;;;;;19.17;7.28;;;18.00;99.90;;;18.09;59.63;101114.59;4859374;29;20059;-60
2022/05/16 01:58:45;;;;;;;15.48;6.82;;;17.80;99.90;;;17.92;59.50;101076.78;4859467;29;20068;-61
2022/05/16 02:01:15;;;;;;;18.13;8.00;;;17.80;99.90;;;18.14;59.79;101115.31;4859426;29;20081;-60
2022/05/16 02:03:48;;;;;;;12.55;7.10;;;17.80;99.90;;;17.96;60.08;101111.41;4860684;29;20057;-60
2022/05/16 02:06:18;;;;;;;16.35;7.70;;;17.70;99.90;;;18.05;59.99;101112.94;4862419;29;20049;-60
2022/05/16 02:08:48;;;;;;;13.68;6.65;;;17.70;99.90;;;18.04;60.13;101103.13;4862342;29;20055;-60
2022/05/16 02:11:17;;;;;;;14.82;7.28;;;17.70;99.90;;;18.07;60.12;101097.69;4862299;29;20049;-60
2022/05/16 02:13:46;;;;;;;19.27;7.57;;;17.70;99.90;;;18.19;59.83;101102.69;4862273;29;20042;-60
2022/05/16 02:16:15;;;;;;;22.05;8.20;;;17.90;99.90;;;18.16;59.82;101105.44;4862453;29;20472;-59
2022/05/16 02:18:44;;;;;;;14.63;7.45;;;17.90;99.90;;;18.10;60.23;101084.22;4862679;29;20049;-60
2022/05/16 02:26:47;;;;;;;14.82;7.38;;;17.90;99.90;;;18.33;59.56;101080.81;4862405;29;20109;-60
2022/05/16 02:29:18;;;;;;;16.33;7.38;;;18.00;99.90;;;18.23;59.89;101082.91;4860993;29;20423;-60
2022/05/16 02:31:47;;;;;;;19.75;7.70;;;18.00;99.90;;;18.51;59.51;101097.19;4862018;29;20057;-60
2022/05/16 02:34:16;;;;;;;18.77;8.13;;;18.10;99.90;;;18.59;58.92;101081.72;4861982;29;20045;-61
2022/05/16 02:36:45;;;;;;;15.75;7.97;;;18.20;99.90;;;18.52;59.11;101069.47;4860866;29;20465;-60
2022/05/16 02:39:18;;;;;;;21.33;7.75;;;18.20;99.90;;;18.48;59.16;101074.97;4862242;29;20132;-60
2022/05/16 02:41:47;;;;;;;15.85;7.40;;;18.20;99.90;;;18.38;59.36;101069.00;4862489;29;20115;-60
2022/05/16 02:44:16;;;;;;;20.42;8.13;;;18.10;99.90;;;18.43;59.54;101060.84;4861815;29;20048;-60
2022/05/16 02:46:45;;;;;;;15.13;7.82;;;18.10;99.90;;;18.55;59.12;101060.44;4861912;29;20053;-60
2022/05/16 02:49:18;;;;;;;16.67;7.82;;;18.20;99.90;;;18.49;59.34;101045.44;4862107;29;20049;-60
2022/05/16 02:51:46;;;;;;;14.48;7.85;;;18.20;99.90;;;18.51;59.39;101054.31;4862156;29;20047;-60
2022/05/16 02:54:16;;;;;;;19.70;7.88;;;18.20;99.90;;;18.33;59.74;101070.09;4861994;29;20101;-60
2022/05/16 02:56:44;;;;;;;18.23;8.15;;;18.10;99.90;;;18.18;60.39;101066.09;4861505;29;20117;-61
2022/05/16 02:59:13;;;;;;;17.00;8.38;;;17.90;99.90;;;18.09;60.68;101060.16;4861822;29;20052;-60
2022/05/16 03:01:41;;;;;;;16.92;7.80;;;17.80;99.90;;;17.96;61.03;101065.06;4861301;29;20101;-60
2022/05/16 03:04:10;;;;;;;16.48;8.40;;;17.70;99.90;;;18.01;61.60;101069.34;4861767;29;20052;-60
2022/05/16 03:06:38;;;;;;;17.58;8.00;;;17.60;99.90;;;18.28;60.56;101048.81;4862098;29;20076;-60
2022/05/16 03:09:06;;;;;;;15.27;8.50;;;17.80;99.90;;;18.40;60.23;101042.16;4861747;29;20046;-60
2022/05/16 03:11:36;;;;;;;17.25;7.75;;;18.00;99.90;;;18.62;59.79;101045.91;4861905;29;20049;-60
2022/05/16 03:14:04;;;;;;;14.23;8.18;;;18.20;99.90;;;18.43;59.69;101067.06;4861842;29;20081;-60
2022/05/16 03:16:33;;;;;;;18.35;7.80;;;18.20;99.90;;;18.22;60.42;101075.78;4861120;29;20052;-60
2022/05/16 03:19:01;;;;;;;15.68;7.82;;;17.90;99.90;;;18.04;61.38;101050.47;4861485;29;20057;-60
2022/05/16 03:21:30;;;;;;;16.85;8.43;;;17.70;99.90;;;18.42;60.63;101057.31;4861360;29;20088;-60
2022/05/16 03:23:59;;;;;;;19.38;8.98;;;17.90;99.90;;;18.33;60.91;101068.28;4861650;29;20048;-60
2022/05/16 03:26:28;;;;;;;16.33;7.97;;;17.90;99.90;;;18.19;60.86;101065.19;4859951;29;20503;-60
2022/05/16 03:28:57;;;;;;;13.90;7.95;;;17.80;99.90;;;18.17;60.99;101064.38;4861011;29;20148;-60
2022/05/16 03:31:26;;;;;;;15.87;7.83;;;17.80;99.90;;;18.30;60.73;101059.47;4861229;29;20050;-59
2022/05/16 03:33:54;;;;;;;17.25;8.00;;;18.00;99.90;;;18.31;60.85;101063.91;4861123;29;20113;-60
2022/05/16 03:36:24;;;;;;;19.55;8.35;;;18.00;99.90;;;18.51;60.33;101065.03;4859730;29;20069;-59
2022/05/16 03:41:38;;;;;;;14.48;8.38;;;18.10;99.90;;;18.47;60.24;101063.38;4860746;29;20487;-60
2022/05/16 03:44:08;;;;;;;14.38;7.57;;;18.10;99.90;;;18.38;60.31;101044.91;4860648;29;20052;-60
2022/05/16 03:46:37;;;;;;;18.55;7.95;;;18.20;99.90;;;18.34;60.65;101055.75;4859584;29;20149;-60
2022/05/16 03:49:06;;;;;;;16.73;8.75;;;18.00;99.90;;;18.39;60.58;101054.69;4861040;29;20151;-60
2022/05/16 03:51:34;;;;;;;17.20;8.38;;;18.10;99.90;;;18.49;60.53;101064.19;4860582;29;20128;-60
2022/05/16 03:54:03;;;;;;;16.60;8.05;;;18.10;99.90;;;18.24;61.19;101055.19;4860742;29;20041;-60
2022/05/16 03:56:32;;;;;;;21.33;8.95;;;18.00;99.90;;;18.04;61.70;101071.00;4860656;29;20088;-60
2022/05/16 03:59:01;;;;;;;18.15;8.25;;;17.80;99.90;;;17.96;62.31;101057.88;4860278;29;20144;-60
2022/05/16 04:01:31;;;;;;;14.50;8.13;;;17.70;99.90;;;18.06;62.27;101054.94;4860127;29;20101;-60
2022/05/16 04:03:59;;;;;;;18.58;8.88;;;17.70;99.90;;;18.27;62.17;101041.72;4859001;29;20053;-60
2022/05/16 04:06:28;;;;;;;19.75;8.55;;;17.80;99.90;;;18.29;61.89;101039.84;4860298;29;20132;-60
2022/05/16 04:08:56;;;;;;;17.08;8.60;;;17.90;99.90;;;18.29;61.53;101036.31;4860214;29;20052;-61
2022/05/16 04:11:24;;;;;;;16.25;8.70;;;18.00;99.90;;;18.24;61.89;101040.91;4860106;29;20111;-60
2022/05/16 04:13:52;;;;;;;21.70;8.82;;;17.90;99.90;;;18.07;62.64;101045.94;4860618;29;20042;-59
2022/05/16 04:16:21;;;;;;;15.93;8.55;;;17.80;99.90;;;17.95;62.94;101039.19;4860271;29;20046;-58
2022/05/16 04:18:50;;;;;;;14.40;7.80;;;17.70;99.90;;;18.23;62.48;101052.56;4859704;29;20491;-58
2022/05/16 04:21:19;;;;;;;17.67;7.75;;;17.80;99.90;;;18.36;62.02;101035.16;4860192;29;20109;-59
2022/05/16 04:23:47;;;;;;;16.15;8.52;;;17.90;99.90;;;18.67;61.78;101042.16;4860467;29;20136;-59
2022/05/16 04:26:16;;;;;;;16.98;9.00;;;18.20;99.90;;;18.81;61.14;101047.03;4859735;29;20113;-59
2022/05/16 04:28:44;;;;;;;15.15;8.20;;;18.40;99.90;;;18.81;60.77;101045.19;4859932;29;20136;-59
2022/05/16 04:31:12;;;;;;;16.23;8.25;;;18.50;99.90;;;18.88;60.90;101035.13;4859970;29;20084;-59
2022/05/16 04:33:41;;;;;;;15.18;8.20;;;18.50;99.90;;;18.74;61.08;101038.31;4859861;29;20046;-59
2022/05/16 04:36:11;;;;;;;15.38;8.63;;;18.50;99.90;;;18.77;61.13;101037.34;4859820;29;20105;-59
2022/05/16 04:38:39;;;;;;;17.77;8.23;;;18.50;99.90;;;18.90;61.16;101047.56;4859685;29;20045;-59
2022/05/16 04:43:54;;;;;;;14.18;7.75;;;18.60;99.90;;;19.07;60.68;101048.75;4860097;29;20072;-59
2022/05/16 04:46:22;;;;;;;17.75;8.77;;;18.70;99.90;;;19.01;60.86;101051.69;4859679;29;20057;-59
2022/05/16 04:48:50;;;;;;;14.93;7.82;;;18.70;99.90;;;18.95;61.35;101049.22;4858540;29;20384;-59
2022/05/16 04:51:20;;;;;;;15.38;7.97;;;18.60;99.90;;;18.97;61.30;101042.84;4859667;29;20077;-59
2022/05/16 04:53:53;;;;;;;18.50;9.55;;;18.60;99.90;;;19.07;61.38;101052.31;4860082;29;20060;-59
2022/05/16 04:56:21;;;;;;;14.35;8.88;;;18.70;99.90;;;18.52;61.21;100948.91;4859677;29;20048;-59
2022/05/16 04:58:50;;;;;;;17.83;8.68;;;18.70;99.90;;;19.08;61.44;101051.41;4859623;29;20073;-59
2022/05/16 05:01:18;;;;;;;19.33;8.27;;;18.70;99.90;;;18.89;61.82;101053.84;4860127;29;20042;-59
2022/05/16 05:03:46;;;;;;;14.25;7.85;;;18.50;99.90;;;18.88;62.32;101054.78;4859926;29;20057;-60
2022/05/16 05:06:15;;;;;;;17.98;8.68;;;18.50;99.90;;;19.01;62.11;101051.69;4859676;29;20166;-59
2022/05/16 05:08:44;;;;;;;18.00;8.60;;;18.60;99.90;;;19.28;61.46;101062.25;4859587;29;20045;-59
2022/05/16 05:16:45;;;;;;;18.60;8.45;;;19.10;99.90;;;19.39;60.92;101068.16;4859690;29;20045;-59
2022/05/16 05:19:13;;;;;;;18.95;9.05;;;19.00;99.90;;;19.08;62.04;101062.13;4859730;29;20054;-59
2022/05/16 05:21:42;;;;;;;16.13;8.80;;;18.80;99.90;;;18.90;63.27;101042.22;4860043;29;20121;-59
2022/05/16 05:24:11;;;;;;;18.95;8.57;;;18.60;99.90;;;18.88;63.50;101060.16;4859704;29;20037;-59
2022/05/16 05:26:42;;;;;;;21.23;8.32;;;18.50;99.90;;;18.95;63.46;101070.66;4859766;29;20120;-59
2022/05/16 05:29:12;;;;;;;17.67;8.75;;;18.50;99.90;;;19.09;63.03;101068.34;4859498;29;20113;-59
2022/05/16 05:31:41;;;;;;;15.65;8.45;;;18.70;99.90;;;18.99;63.67;101061.59;4859455;29;20092;-59
2022/05/16 05:34:11;;;;;;;15.80;8.65;;;18.60;99.90;;;19.27;63.71;101084.66;4859611;29;20037;-59
2022/05/16 05:36:40;;;;;;;16.50;9.10;;;18.80;99.90;;;19.31;63.71;101093.47;4859614;29;20049;-60
2022/05/16 05:39:13;;;;;;;22.08;9.13;;;19.00;99.90;;;19.41;63.92;101100.28;4861771;29;20045;-59
2022/05/16 05:41:41;;;;;;;18.67;9.32;;;19.00;99.90;;;19.40;64.25;101104.75;4861910;29;20471;-59
2022/05/16 05:44:09;;;;;;;17.25;9.63;;;19.10;99.90;;;19.48;63.55;101104.47;4862771;29;20037;-59
2022/05/16 05:46:40;;;;;;;17.95;9.85;;;19.10;99.90;;;19.37;63.70;101098.66;4862750;29;20045;-59
2022/05/16 05:49:09;;;;;;;18.83;9.63;;;19.10;99.90;;;19.44;63.46;101105.53;4862815;29;20073;-59
2022/05/16 05:51:38;;;;;;;19.13;9.02;;;19.20;99.90;;;19.55;63.71;101111.38;4863200;29;20049;-59
2022/05/16 05:54:07;;;;;;;18.60;10.30;;;19.20;99.90;;;19.72;63.16;101117.84;4862839;29;20138;-60
2022/05/16 05:56:38;;;;;;;17.40;9.50;;;19.30;99.90;;;19.68;62.83;101115.34;4863050;29;20053;-59
2022/05/16 05:59:06;;;;;;;26.52;9.75;;;19.30;99.90;;;19.74;62.45;101110.59;4863105;29;20060;-59
2022/05/16 06:01:35;;;;;;;18.48;9.00;;;19.40;99.90;;;19.82;61.97;101113.03;4862557;29;20056;-59
2022/05/16 06:04:04;;;;;;;18.02;9.43;;;19.50;99.90;;;19.95;61.81;101110.72;4862417;29;20081;-59
2022/05/16 06:06:33;;;;;;;17.98;9.88;;;19.60;99.90;;;19.92;62.12;101116.25;4862554;29;20045;-59
2022/05/16 06:09:01;;;;;;;19.85;10.02;;;19.60;99.90;;;19.98;62.14;101119.53;4862765;29;20045;-59
2022/05/16 06:11:29;;;;;;;15.55;9.10;;;19.60;99.90;;;20.11;61.60;101117.25;4862326;29;20049;-59
2022/05/16 06:13:59;;;;;;;13.98;9.05;;;19.70;99.90;;;20.11;61.98;101115.44;4862173;29;20180;-59
2022/05/16 06:16:27;;;;;;;19.20;9.27;;;19.80;99.90;;;20.22;63.07;101115.03;4862294;29;20597;-59
2022/05/16 06:18:56;;;;;;;17.48;9.00;;;19.80;99.90;;;19.94;62.94;101109.84;4862274;29;20061;-59
2022/05/16 06:21:24;;;;;;;13.90;9.35;;;19.70;99.90;;;19.61;64.45;101113.81;4862115;29;20078;-59
2022/05/16 06:23:52;;;;;;;15.15;9.25;;;19.30;99.90;;;19.61;64.82;101113.81;4862620;29;20041;-59
2022/05/16 06:26:21;;;;;;;15.75;9.10;;;19.20;99.90;;;19.75;64.97;101125.81;4862246;29;20053;-60
2022/05/16 06:28:50;;;;;;;17.73;10.13;;;19.20;99.90;;;19.83;65.26;101112.09;4861853;29;20136;-60
2022/05/16 06:31:19;;;;;;;16.02;10.02;;;19.40;99.90;;;19.90;66.24;101120.78;4861817;29;20520;-61
2022/05/16 06:33:48;;;;;;;15.85;9.98;;;19.40;99.90;;;19.79;66.38;101118.50;4862090;29;20057;-60
2022/05/16 06:36:17;;;;;;;21.98;9.88;;;19.40;99.90;;;19.98;65.49;101110.59;4860750;29;20433;-59
2022/05/16 06:38:46;;;;;;;15.20;9.10;;;19.50;99.90;;;19.99;65.97;101117.72;4861706;29;20463;-61
2022/05/16 06:41:14;;;;;;;15.38;10.00;;;19.50;99.90;;;19.85;67.26;101126.31;4862276;29;20080;-60
2022/05/16 06:43:42;;;;;;;19.38;9.90;;;19.40;99.90;;;20.14;67.05;101134.13;4861712;29;20479;-63
2022/05/16 06:46:10;;;;;;;21.05;10.45;;;19.60;99.90;;;20.18;65.59;101133.09;4861914;29;20053;-62
2022/05/16 06:48:40;;;;;;;16.98;9.55;;;19.70;99.90;;;20.35;65.46;101127.94;4861263;29;20144;-61
2022/05/16 06:51:09;;;;;;;18.88;9.95;;;19.90;99.90;;;20.51;64.56;101131.75;4861666;29;20064;-63
2022/05/16 06:53:37;;;;;;;15.05;9.95;;;20.00;99.90;;;20.72;65.59;101137.16;4860543;29;20056;-62
2022/05/16 06:56:06;;;;;;;22.02;10.50;;;20.30;99.90;;;20.77;65.90;101138.72;4861623;29;20048;-62
2022/05/16 06:58:35;;;;;;;18.85;10.77;;;20.30;99.90;;;20.86;66.57;101132.09;4861642;29;20045;-64
2022/05/16 07:01:04;;;;;;;18.80;9.82;;;20.50;99.90;;;21.19;66.34;101141.44;4861555;29;20516;-61
2022/05/16 07:03:33;;;;;;;28.38;10.82;;;20.70;99.90;;;21.29;64.81;101116.72;4861013;29;20089;-60
2022/05/16 07:06:02;;;;;;;27.98;9.85;;;20.90;99.90;;;21.56;64.48;101136.16;4861444;29;20459;-60
2022/05/16 07:08:31;;;;;;;32.95;9.00;;;21.10;99.90;;;21.67;62.76;101130.28;4861374;29;20140;-60
2022/05/16 07:10:59;;;;;;;20.15;8.60;;;21.30;99.90;;;21.80;62.69;101126.97;4861341;29;20077;-61
2022/05/16 07:13:29;;;;;;;18.92;9.05;;;21.40;99.90;;;21.96;61.95;101133.41;4861217;29;20046;-60
2022/05/16 07:15:57;;;;;;;25.83;8.90;;;21.50;99.90;;;22.03;61.55;101147.44;4860188;29;20113;-61
2022/05/16 07:18:27;;;;;;;28.88;9.88;;;21.60;99.90;;;22.20;62.19;101151.09;4861381;29;20664;-62
2022/05/16 07:20:59;;;;;;;22.58;9.15;;;21.80;99.90;;;22.24;61.91;101154.56;4861256;29;20084;-61
2022/05/16 07:23:28;;;;;;;13.90;9.15;;;21.90;99.90;;;22.25;62.29;101159.84;4861406;29;20129;-61
2022/05/16 07:28:42;;;;;;;16.55;9.07;;;21.90;99.90;;;22.22;61.97;101167.22;4861602;29;20049;-61
2022/05/16 07:31:11;;;;;;;13.50;8.57;;;21.80;99.90;;;22.26;62.43;101164.28;4859760;29;20050;-61
2022/05/16 07:33:40;;;;;;;14.07;9.23;;;21.90;99.90;;;22.41;62.84;101163.53;4861241;29;20485;-61
2022/05/16 07:36:09;;;;;;;15.70;8.15;;;21.90;99.90;;;22.56;62.68;101159.25;4860861;29;20049;-61
2022/05/16 07:38:38;;;;;;;13.23;8.88;;;22.10;99.90;;;22.64;62.79;101164.28;4860729;29;20041;-61
2022/05/16 07:41:08;;;;;;;12.60;8.40;;;22.20;99.90;;;22.81;62.73;101156.22;4860806;29;20053;-61
2022/05/16 07:43:37;;;;;;;11.23;7.57;;;22.30;99.90;;;22.83;62.20;101165.13;4860678;29;20057;-61
2022/05/16 07:46:05;;;;;;;13.80;7.72;;;22.40;99.90;;;22.84;62.19;101151.53;4859663;29;20503;-61
2022/05/16 07:48:34;;;;;;;11.93;7.47;;;22.40;99.90;;;23.00;62.56;101165.13;4860563;29;20389;-61
2022/05/16 07:51:03;;;;;;;12.98;7.18;;;22.50;99.90;;;23.16;62.89;101166.09;4860634;29;20047;-61
2022/05/16 07:53:32;;;;;;;8.75;6.55;;;22.70;99.90;;;23.21;62.65;101161.34;4860648;29;20133;-61
2022/05/16 07:56:03;;;;;;;10.50;7.38;;;22.90;99.90;;;23.42;61.25;101175.59;4860646;29;20069;-61
2022/05/16 07:58:32;;;;;;;10.95;6.78;;;23.00;99.90;;;23.50;61.76;101162.56;4860757;29;20073;-60
2022/05/16 08:01:00;;;;;;;13.32;6.80;;;23.10;99.90;;;23.71;61.26;101172.22;4859706;29;20042;-60
2022/05/16 08:03:31;;;;;;;13.10;7.18;;;23.30;99.90;;;23.85;60.61;101175.91;4860710;29;20057;-61
2022/05/16 08:06:00;;;;;;;11.60;6.50;;;23.40;99.90;;;24.07;61.16;101175.66;4859387;29;20057;-61
2022/05/16 08:11:16;;;;;;;10.10;5.65;;;23.80;99.90;;;24.18;59.50;101168.69;4861027;29;20054;-61
2022/05/16 08:13:45;;;;;;;9.25;5.78;;;23.90;99.90;;;24.24;59.30;101155.78;4860601;29;20084;-62
2022/05/16 08:16:13;;;;;;;10.15;6.10;;;24.00;99.90;;;24.38;58.43;101164.88;4860489;29;20098;-61
2022/05/16 08:18:42;;;;;;;12.43;5.70;;;24.10;99.90;;;24.57;58.22;101168.28;4860141;29;20077;-61
2022/05/16 08:21:11;;;;;;;8.00;5.18;;;24.20;99.90;;;24.79;57.84;101167.94;4860384;29;20333;-61
2022/05/16 08:23:41;;;;;;;8.57;5.10;;;24.40;99.90;;;25.02;56.97;101172.88;4859496;29;20053;-60
2022/05/16 08:26:10;;;;;;;9.20;4.93;;;24.60;99.90;;;25.24;56.67;101173.31;4861186;29;20050;-61
2022/05/16 08:28:40;;;;;;;8.00;4.80;;;24.80;99.90;;;25.46;56.00;101179.22;4861038;29;20080;-61
2022/05/16 08:31:09;;;;;;;10.80;4.90;;;25.00;99.90;;;25.60;54.76;101179.25;4861027;29;20144;-61
2022/05/16 08:33:39;;;;;;;7.88;4.68;;;25.20;99.90;;;25.74;54.69;101186.53;4860971;29;20041;-61
2022/05/16 08:41:53;;;;;;;13.45;3.92;;;25.70;99.90;;;26.41;53.00;101194.00;4861092;29;20117;-60
2022/05/16 08:44:29;;;;;;;8.65;4.32;;;26.00;99.90;;;26.61;53.00;101186.31;4861080;29;20073;-61
2022/05/16 08:47:16;;;;;;;6.88;4.15;;;26.20;99.90;;;26.85;52.32;101193.84;4859937;29;20381;-61
2022/05/16 08:49:50;;;;;;;7.22;4.10;;;26.40;99.90;;;26.99;51.25;101210.94;4860772;29;20058;-61
2022/05/16 08:52:36;;;;;;;7.53;4.10;;;26.70;99.90;;;26.91;51.28;101226.88;4861338;29;20050;-61
2022/05/16 08:55:13;;;;;;;10.73;4.63;;;26.60;99.90;;;26.85;50.90;101240.00;4861033;29;20057;-61
2022/05/16 08:57:47;;;;;;;11.18;4.88;;;26.50;99.90;;;26.78;50.46;101247.69;4860661;29;20053;-61
2022/05/16 09:00:31;;;;;;;11.55;4.28;;;26.40;99.90;;;26.67;51.10;101242.91;4861075;29;20441;-61
2022/05/16 09:03:01;;;;;;;9.55;4.90;;;26.40;99.90;;;26.44;51.55;101242.66;4860378;29;20132;-61
2022/05/16 09:05:36;;;;;;;5.93;4.30;;;26.10;99.90;;;26.01;52.42;101230.03;4860971;29;20075;-61
2022/05/16 09:08:10;;;;;;;7.72;5.15;;;25.70;99.90;;;25.98;52.96;101241.94;4860673;29;20109;-61
2022/05/16 09:11:00;;;;;;;7.30;4.80;;;25.60;99.90;;;25.85;53.41;101259.94;4860590;29;20140;-61
2022/05/16 09:13:43;;;;;;;10.45;5.30;;;25.40;99.90;;;25.77;54.40;101259.53;4863780;29;20054;-61
2022/05/16 09:16:34;;;;;;;9.35;5.30;;;25.30;99.90;;;25.68;54.27;101271.81;4864342;29;20079;-61
2022/05/16 09:19:38;;;;;;;8.35;4.78;;;25.20;99.90;;;25.83;55.40;101270.88;4864566;29;20448;-61
2022/05/16 09:22:13;;;;;;;7.90;4.95;;;25.30;99.90;;;25.68;53.58;101265.50;4864229;29;20074;-61
2022/05/16 09:24:49;;;;;;;8.63;4.90;;;25.30;99.90;;;25.77;54.04;101270.38;4864146;29;20042;-62
2022/05/16 09:30:09;;;;;;;12.02;5.88;;;25.50;99.90;;;25.98;55.21;101287.19;4863796;29;20058;-61
2022/05/16 09:32:43;;;;;;;13.88;6.47;;;25.50;99.90;;;25.89;55.10;101294.03;4864055;29;20049;-61
2022/05/16 09:35:26;;;;;;;11.05;5.90;;;25.50;99.90;;;25.80;54.77;101297.31;4864329;29;20453;-59
2022/05/16 09:37:58;;;;;;;13.10;6.10;;;25.40;99.90;;;25.56;55.02;101294.22;4863979;29;20042;-56
2022/05/16 09:40:34;;;;;;;14.13;6.05;;;25.20;99.90;;;25.11;54.81;101291.47;4864051;29;20117;-58
2022/05/16 09:43:09;;;;;;;12.95;5.60;;;24.90;99.90;;;25.02;55.91;101297.41;4864097;29;20109;-58
2022/05/16 09:45:38;;;;;;;11.55;5.78;;;24.60;99.90;;;25.00;56.68;101289.38;4863831;29;20060;-58
2022/05/16 09:48:20;;;;;;;10.75;5.40;;;24.50;99.90;;;24.88;57.42;101291.91;4862711;29;20133;-58
2022/05/16 09:51:09;;;;;;;13.32;5.85;;;24.40;99.90;;;24.75;58.29;101283.63;4863780;29;20481;-59
2022/05/16 09:53:42;;;;;;;13.07;6.05;;;24.30;99.90;;;24.76;59.51;101289.88;4863731;29;20071;-59
2022/05/16 09:56:30;;;;;;;14.82;6.75;;;24.20;99.90;;;24.66;60.94;101294.06;4863864;29;20136;-57
2022/05/16 09:59:01;;;;;;;12.90;6.53;;;24.20;99.90;;;24.50;61.32;101304.84;4863165;29;20129;-56
2022/05/16 10:01:34;;;;;;;11.93;5.75;;;24.10;99.90;;;24.41;62.11;101326.13;4862365;29;20053;-56
2022/05/16 10:04:14;;;;;;;14.88;6.30;;;23.90;99.90;;;24.14;62.92;101332.03;4862706;29;20088;-56
2022/05/16 10:06:56;;;;;;;8.60;5.65;;;23.70;99.90;;;24.08;63.55;101355.81;4862664;29;20089;-56
2022/05/16 10:09:30;;;;;;;14.43;6.20;;;23.60;99.90;;;23.41;65.51;101366.44;4862421;29;20673;-56
2022/05/16 10:12:00;;;;;;;16.50;8.13;;;23.10;99.90;;;23.07;67.22;101355.53;4862452;29;20073;-58
2022/05/16 10:14:29;;;;;;;21.90;9.23;;;22.80;99.90;;;22.90;69.05;101377.03;4862545;29;20122;-58
2022/05/16 10:16:58;;;;;;;23.98;9.93;;;22.40;99.90;;;22.77;69.77;101382.13;4862595;29;20128;-58
2022/05/16 10:19:31;;;;;;;25.83;11.23;;;22.30;99.90;;;22.49;71.16;101396.91;4862512;29;20077;-59
2022/05/16 10:22:04;;;;;;;19.85;11.57;;;22.10;99.90;;;22.36;72.00;101400.16;4862423;29;20045;-58
2022/05/16 10:24:39;;;;;;;22.75;12.57;;;21.90;99.90;;;22.14;73.39;101398.47;4861326;29;20476;-58
2022/05/16 10:27:11;;;;;;;22.55;11.85;;;21.70;99.90;;;22.18;73.90;101397.41;4862059;29;20098;-58
2022/05/16 10:29:44;;;;;;;26.88;13.77;;;21.70;99.90;;;22.03;74.38;101398.94;4862002;29;20041;-58
2022/05/16 10:35:23;;;;;;;29.58;17.77;;;21.60;99.90;;;22.06;75.60;101416.78;4862254;29;20113;-58
2022/05/16 10:37:55;;;;;;;38.03;21.70;;;21.60;99.90;;;21.93;76.10;101413.72;4861891;29;20132;-58
2022/05/16 10:40:30;;;;;;;36.72;24.08;;;21.50;99.90;;;21.80;76.56;101423.28;4861795;29;20472;-58
2022/05/16 10:43:30;;;;;;;36.83;25.45;;;21.40;99.90;;;21.68;77.65;101398.66;4862080;29;20053;-58
2022/05/16 10:46:06;;;;;;;40.00;25.10;;;21.40;99.90;;;21.73;77.77;101432.53;4862232;29;20049;-58
2022/05/16 10:48:41;;;;;;;31.80;20.85;;;21.30;99.90;;;21.61;77.02;101438.41;4861624;29;20050;-58
2022/05/16 10:51:15;;;;;;;36.63;20.13;;;21.20;99.90;;;21.42;77.38;101438.28;4861887;29;20075;-60
2022/05/16 10:53:57;;;;;;;28.45;17.23;;;21.00;99.90;;;21.29;77.65;101446.91;4861570;29;20042;-58
2022/05/16 10:56:49;;;;;;;19.63;14.70;;;20.90;99.90;;;21.24;77.41;101448.88;4861911;29;20110;-59
2022/05/16 10:59:36;;;;;;;23.10;14.50;;;20.80;99.90;;;21.18;78.37;101452.69;4861503;29;20076;-59